Time;durP1;ratioP1;P1;durP2;ratioP2;P2;SDS_P1;SDS_P2;PMS_P1;PMS_P2;Temp;Humidity;BMP_temperature;BMP_pressure;BME280_temperature;BME280_humidity;BME280_pressure;Samples;Min_cycle;Max_cycle;Signal;HPM_P1;HPM_P2
2023/08/11 00:01:47;;;;;;;1.40;1.30;;;16.70;99.90;;;;;;5019564;28;20041;-69
2023/08/11 00:04:14;;;;;;;0.75;0.75;;;16.70;99.90;;;;;;5019345;28;20080;-69
2023/08/11 00:06:39;;;;;;;;;;;16.70;99.90;;;;;;5019252;28;20739;-69
2023/08/11 00:09:08;;;;;;;1.27;1.17;;;16.70;99.90;;;;;;5030442;28;19944;-69
2023/08/11 00:11:34;;;;;;;1.83;0.95;;;16.70;99.90;;;;;;5028005;28;20034;-69
2023/08/11 00:14:00;;;;;;;1.57;0.90;;;16.70;99.90;;;;;;5046681;28;20584;-69
2023/08/11 00:16:25;;;;;;;3.63;1.20;;;16.70;99.90;;;;;;5032947;28;20022;-69
2023/08/11 00:18:51;;;;;;;2.73;1.30;;;16.70;99.90;;;;;;5020347;28;20030;-68
2023/08/11 00:21:17;;;;;;;0.50;0.50;;;16.70;99.90;;;;;;5024408;28;20388;-69
2023/08/11 00:23:43;;;;;;;3.37;0.67;;;16.70;99.90;;;;;;5029182;28;20026;-69
2023/08/11 00:26:10;;;;;;;;;;;16.70;99.90;;;;;;5032213;28;20100;-69
2023/08/11 00:28:36;;;;;;;0.75;0.70;;;16.60;99.90;;;;;;5031275;28;19912;-69
2023/08/11 00:31:02;;;;;;;0.75;0.70;;;16.60;99.90;;;;;;5033504;28;20084;-69
2023/08/11 00:33:28;;;;;;;0.80;0.80;;;16.70;99.90;;;;;;5035761;28;20321;-69
2023/08/11 00:35:54;;;;;;;0.68;0.68;;;16.60;99.90;;;;;;5026116;28;20528;-69
2023/08/11 00:38:23;;;;;;;0.70;0.70;;;16.60;99.90;;;;;;5022495;28;20034;-69
2023/08/11 00:40:51;;;;;;;1.52;1.00;;;16.60;99.90;;;;;;5044881;28;20372;-69
2023/08/11 00:43:17;;;;;;;2.05;0.98;;;16.70;99.90;;;;;;5027340;28;20104;-69
2023/08/11 00:45:47;;;;;;;1.10;0.88;;;16.60;99.90;;;;;;5032835;28;20067;-69
2023/08/11 00:48:13;;;;;;;12.52;2.13;;;16.60;99.90;;;;;;5039866;28;20037;-69
2023/08/11 00:50:41;;;;;;;0.77;0.77;;;16.50;99.90;;;;;;5033547;28;20338;-69
2023/08/11 00:53:07;;;;;;;0.50;0.50;;;16.50;99.90;;;;;;5023382;28;20492;-69
2023/08/11 00:55:33;;;;;;;0.55;0.55;;;16.50;99.90;;;;;;5035938;28;20020;-69
2023/08/11 00:57:59;;;;;;;1.10;1.00;;;16.50;99.90;;;;;;5033266;28;20030;-69
2023/08/11 01:00:25;;;;;;;0.55;0.55;;;16.50;99.90;;;;;;5042014;28;20082;-69
2023/08/11 01:02:51;;;;;;;1.40;1.03;;;16.50;99.90;;;;;;5027504;28;20038;-69
2023/08/11 01:05:19;;;;;;;0.60;0.60;;;16.50;99.90;;;;;;5024347;28;20328;-69
2023/08/11 01:08:04;;;;;;;5.72;0.95;;;16.50;99.90;;;;;;5039381;28;20037;-69
2023/08/11 01:11:00;;;;;;;0.40;0.40;;;16.50;99.90;;;;;;5033846;28;20111;-68
2023/08/11 01:13:29;;;;;;;1.90;1.55;;;16.50;99.90;;;;;;5047366;28;20091;-68
2023/08/11 01:15:59;;;;;;;4.78;1.67;;;16.50;99.90;;;;;;5038906;28;20033;-69
2023/08/11 01:18:30;;;;;;;2.83;0.90;;;16.40;99.90;;;;;;5024675;28;20034;-69
2023/08/11 01:21:01;;;;;;;4.45;1.00;;;16.40;99.90;;;;;;5028436;28;20032;-69
2023/08/11 01:23:27;;;;;;;3.33;1.10;;;16.30;99.90;;;;;;5036404;28;20121;-69
2023/08/11 01:25:54;;;;;;;0.50;0.50;;;16.30;99.90;;;;;;5023173;28;20484;-69
2023/08/11 01:28:19;;;;;;;;;;;16.30;99.90;;;;;;5023591;28;20065;-69
2023/08/11 01:30:45;;;;;;;2.63;1.50;;;16.30;99.90;;;;;;5025871;28;19949;-68
2023/08/11 01:33:11;;;;;;;4.17;0.93;;;16.30;99.90;;;;;;5029519;28;20033;-69
2023/08/11 01:35:37;;;;;;;0.63;0.63;;;16.30;99.90;;;;;;5031114;28;20041;-69
2023/08/11 01:38:04;;;;;;;1.75;0.73;;;16.30;99.90;;;;;;5020694;28;20049;-68
2023/08/11 01:40:30;;;;;;;0.97;0.47;;;16.20;99.90;;;;;;5017720;28;20038;-68
2023/08/11 01:43:00;;;;;;;7.87;2.07;;;16.20;99.90;;;;;;5028916;28;20029;-69
2023/08/11 01:45:27;;;;;;;0.57;0.57;;;16.20;99.90;;;;;;5028793;28;20432;-69
2023/08/11 01:47:53;;;;;;;2.88;1.45;;;16.20;99.90;;;;;;5021611;28;20333;-69
2023/08/11 01:50:21;;;;;;;0.52;0.45;;;16.30;99.90;;;;;;5022775;28;20091;-68
2023/08/11 01:52:47;;;;;;;2.33;0.95;;;16.30;99.90;;;;;;5035618;28;20458;-69
2023/08/11 01:55:15;;;;;;;3.25;0.70;;;16.20;99.90;;;;;;5033733;28;20060;-69
2023/08/11 01:57:41;;;;;;;2.03;0.50;;;16.20;99.90;;;;;;5018792;28;20048;-69
2023/08/11 02:00:16;;;;;;;2.63;1.73;;;16.20;99.90;;;;;;5028544;28;20025;-69
2023/08/11 02:02:43;;;;;;;1.75;0.85;;;16.20;99.90;;;;;;5026443;28;20323;-68
2023/08/11 02:05:12;;;;;;;0.57;0.32;;;16.20;99.90;;;;;;5027244;28;20040;-69
2023/08/11 02:07:41;;;;;;;3.03;1.27;;;16.20;99.90;;;;;;5028041;28;20021;-69
2023/08/11 02:10:11;;;;;;;0.75;0.75;;;16.20;99.90;;;;;;5029303;28;20033;-69
2023/08/11 02:12:39;;;;;;;6.53;1.83;;;16.20;99.90;;;;;;5026899;28;20068;-69
2023/08/11 02:15:05;;;;;;;1.02;0.98;;;16.20;99.90;;;;;;5028459;28;20032;-69
2023/08/11 02:17:31;;;;;;;0.60;0.60;;;16.20;99.90;;;;;;5035061;28;20053;-69
2023/08/11 02:19:59;;;;;;;1.60;0.85;;;16.20;99.90;;;;;;5035345;28;20025;-68
2023/08/11 02:22:25;;;;;;;4.50;1.05;;;16.20;99.90;;;;;;5032344;28;20033;-78
2023/08/11 02:24:51;;;;;;;1.23;0.47;;;16.20;99.90;;;;;;5035291;28;20443;-69
2023/08/11 02:27:17;;;;;;;1.03;0.93;;;16.20;99.90;;;;;;5050885;28;20029;-69
2023/08/11 02:29:44;;;;;;;0.65;0.65;;;16.20;99.90;;;;;;5034638;28;20021;-69
2023/08/11 02:32:11;;;;;;;3.22;1.38;;;16.20;99.90;;;;;;5031570;28;20037;-70
2023/08/11 02:34:37;;;;;;;;;;;16.20;99.90;;;;;;5021186;28;20030;-69
2023/08/11 02:37:03;;;;;;;0.40;0.40;;;16.30;99.90;;;;;;5026558;28;19921;-69
2023/08/11 02:39:29;;;;;;;3.03;1.17;;;16.30;99.90;;;;;;5029756;28;20030;-69
2023/08/11 02:41:55;;;;;;;0.50;0.50;;;16.30;99.90;;;;;;5035253;28;20095;-68
2023/08/11 02:44:22;;;;;;;0.75;0.75;;;16.30;99.90;;;;;;5034812;28;20040;-68
2023/08/11 02:46:48;;;;;;;;;;;16.30;99.90;;;;;;5033523;28;20021;-68
2023/08/11 02:49:13;;;;;;;0.70;0.70;;;16.30;99.90;;;;;;5022964;28;20322;-69
2023/08/11 02:51:39;;;;;;;0.87;0.53;;;16.30;99.90;;;;;;5020810;28;20032;-69
2023/08/11 02:54:05;;;;;;;0.50;0.33;;;16.30;99.90;;;;;;5037978;28;20037;-80
2023/08/11 02:56:31;;;;;;;1.90;1.13;;;16.30;99.90;;;;;;5025206;28;20033;-69
2023/08/11 02:58:58;;;;;;;3.70;0.95;;;16.20;99.90;;;;;;5031988;28;20025;-68
2023/08/11 03:01:25;;;;;;;9.77;1.10;;;16.20;99.90;;;;;;5025752;28;20072;-69
2023/08/11 03:03:52;;;;;;;0.82;0.82;;;16.20;99.90;;;;;;5036733;28;20037;-69
2023/08/11 03:06:18;;;;;;;0.70;0.55;;;16.20;99.90;;;;;;5040956;28;20040;-69
2023/08/11 03:08:44;;;;;;;0.83;0.70;;;16.20;99.90;;;;;;5043101;28;20301;-68
2023/08/11 03:11:10;;;;;;;25.33;2.47;;;16.20;99.90;;;;;;5025315;28;20041;-69
2023/08/11 03:13:36;;;;;;;3.50;1.27;;;16.20;99.90;;;;;;5029947;28;20371;-69
2023/08/11 03:16:03;;;;;;;4.10;2.10;;;16.20;99.90;;;;;;5034425;28;20515;-69
2023/08/11 03:18:30;;;;;;;1.95;0.95;;;16.20;99.90;;;;;;5040285;28;20037;-69
2023/08/11 03:20:56;;;;;;;0.35;0.35;;;16.20;99.90;;;;;;5025800;28;20117;-69
2023/08/11 03:23:22;;;;;;;1.38;0.90;;;16.20;99.90;;;;;;5036552;28;20041;-69
2023/08/11 03:25:48;;;;;;;0.80;0.80;;;16.20;99.90;;;;;;5033021;28;20025;-69
2023/08/11 03:28:14;;;;;;;3.00;0.83;;;16.20;99.90;;;;;;5048186;28;20055;-69
2023/08/11 03:30:39;;;;;;;0.97;0.83;;;16.20;99.90;;;;;;5027358;28;20040;-69
2023/08/11 03:33:05;;;;;;;2.07;0.83;;;16.20;99.90;;;;;;5022941;28;20279;-69
2023/08/11 03:35:34;;;;;;;1.60;1.33;;;16.20;99.90;;;;;;5024041;28;20459;-69
2023/08/11 03:38:00;;;;;;;1.23;1.13;;;16.20;99.90;;;;;;5040713;28;20495;-70
2023/08/11 03:40:26;;;;;;;0.88;0.85;;;16.20;99.90;;;;;;5033214;28;20213;-69
2023/08/11 03:42:53;;;;;;;1.90;1.50;;;16.30;99.90;;;;;;5042609;28;20141;-69
2023/08/11 03:45:19;;;;;;;2.22;1.42;;;16.30;99.90;;;;;;5032587;28;20026;-68
2023/08/11 03:47:45;;;;;;;1.23;0.85;;;16.20;99.90;;;;;;5037309;28;20060;-69
2023/08/11 03:50:11;;;;;;;3.10;0.63;;;16.20;99.90;;;;;;5025411;28;20109;-69
2023/08/11 03:52:38;;;;;;;4.22;1.45;;;16.20;99.90;;;;;;5024583;28;20037;-69
2023/08/11 03:55:09;;;;;;;2.17;0.73;;;16.20;99.90;;;;;;5031611;28;20432;-69
2023/08/11 03:57:36;;;;;;;0.70;0.70;;;16.10;99.90;;;;;;5025486;28;20041;-68
2023/08/11 04:00:08;;;;;;;2.88;1.00;;;16.10;99.90;;;;;;5031142;28;20332;-69
2023/08/11 04:02:35;;;;;;;2.17;1.15;;;16.10;99.90;;;;;;5030136;28;20022;-69
2023/08/11 04:05:00;;;;;;;1.35;1.25;;;16.10;99.90;;;;;;5030103;28;20033;-69
2023/08/11 04:07:27;;;;;;;1.73;1.37;;;16.10;99.90;;;;;;5027131;28;20091;-69
2023/08/11 04:09:54;;;;;;;;;;;16.10;99.90;;;;;;5025297;28;20032;-68
2023/08/11 04:12:19;;;;;;;10.88;1.42;;;16.10;99.90;;;;;;5036269;28;19967;-68
2023/08/11 04:14:45;;;;;;;0.97;0.97;;;16.00;99.90;;;;;;5036386;28;20029;-69
2023/08/11 04:17:13;;;;;;;1.53;1.43;;;16.00;99.90;;;;;;5037807;28;20100;-69
2023/08/11 04:19:41;;;;;;;0.55;0.55;;;16.00;99.90;;;;;;5039815;28;20460;-69
2023/08/11 04:22:07;;;;;;;3.80;1.27;;;16.00;99.90;;;;;;5029566;28;20029;-69
2023/08/11 04:24:34;;;;;;;1.27;1.17;;;16.00;99.90;;;;;;5037500;28;20420;-69
2023/08/11 04:26:59;;;;;;;2.05;0.90;;;16.00;99.90;;;;;;5027511;28;20037;-74
2023/08/11 04:29:26;;;;;;;1.10;1.00;;;16.00;99.90;;;;;;5022580;28;20076;-69
2023/08/11 04:31:52;;;;;;;1.67;0.98;;;16.00;99.90;;;;;;5033154;28;20078;-69
2023/08/11 04:34:18;;;;;;;1.63;1.33;;;15.90;99.90;;;;;;5037510;28;20025;-69
2023/08/11 04:36:44;;;;;;;5.13;1.93;;;15.90;99.90;;;;;;5034344;28;20565;-69
2023/08/11 04:39:10;;;;;;;1.23;1.13;;;15.90;99.90;;;;;;5052099;28;20080;-69
2023/08/11 04:41:37;;;;;;;1.43;1.37;;;15.90;99.90;;;;;;5037289;28;20328;-69
2023/08/11 04:44:04;;;;;;;2.97;1.15;;;15.90;99.90;;;;;;5022999;28;20052;-69
2023/08/11 04:46:31;;;;;;;0.93;0.75;;;15.80;99.90;;;;;;5029008;28;20329;-69
2023/08/11 04:48:56;;;;;;;;;;;15.90;99.90;;;;;;5032860;28;20037;-69
2023/08/11 04:51:22;;;;;;;3.53;1.63;;;15.90;99.90;;;;;;5036222;28;19912;-69
2023/08/11 04:53:49;;;;;;;0.83;0.80;;;15.90;99.90;;;;;;5036502;28;20029;-69
2023/08/11 04:56:16;;;;;;;1.45;1.35;;;15.90;99.90;;;;;;5035298;28;20018;-69
2023/08/11 04:58:41;;;;;;;1.60;1.50;;;15.90;99.90;;;;;;5026414;28;20079;-69
2023/08/11 05:01:07;;;;;;;2.27;1.73;;;15.90;99.90;;;;;;5029703;28;20030;-69
2023/08/11 05:03:33;;;;;;;4.80;2.23;;;15.90;99.90;;;;;;5032644;28;20068;-69
2023/08/11 05:05:59;;;;;;;2.20;1.63;;;16.00;99.90;;;;;;5045846;28;20038;-69
2023/08/11 05:08:25;;;;;;;1.73;1.40;;;16.00;99.90;;;;;;5039949;28;20432;-69
2023/08/11 05:10:51;;;;;;;1.97;1.63;;;16.00;99.90;;;;;;5032286;28;20064;-81
2023/08/11 05:13:17;;;;;;;2.17;1.87;;;16.00;99.90;;;;;;5029645;28;20071;-69
2023/08/11 05:15:42;;;;;;;4.50;1.55;;;16.10;99.90;;;;;;5033044;28;20032;-69
2023/08/11 05:18:10;;;;;;;1.73;1.20;;;16.10;99.90;;;;;;5032145;28;20467;-69
2023/08/11 05:20:35;;;;;;;1.38;1.02;;;16.20;99.90;;;;;;5039681;28;20466;-69
2023/08/11 05:23:01;;;;;;;4.00;1.83;;;16.20;99.90;;;;;;5035431;28;20041;-69
2023/08/11 05:25:27;;;;;;;1.40;0.80;;;16.30;99.90;;;;;;5030259;28;20030;-68
2023/08/11 05:27:53;;;;;;;1.67;1.50;;;16.30;99.90;;;;;;5034933;28;20033;-69
2023/08/11 05:30:24;;;;;;;3.03;1.53;;;16.40;99.90;;;;;;5046676;28;20036;-68
2023/08/11 05:32:50;;;;;;;1.30;0.93;;;16.50;99.90;;;;;;5026067;28;20088;-68
2023/08/11 05:35:17;;;;;;;0.40;0.40;;;16.50;99.90;;;;;;5027337;28;20057;-68
2023/08/11 05:37:43;;;;;;;3.55;1.00;;;16.60;99.90;;;;;;5034006;28;20352;-68
2023/08/11 05:40:09;;;;;;;2.55;1.83;;;16.60;99.90;;;;;;5037242;28;20109;-68
2023/08/11 05:42:35;;;;;;;4.22;1.67;;;16.70;99.90;;;;;;5029964;28;20029;-68
2023/08/11 05:45:01;;;;;;;1.73;1.03;;;16.70;99.90;;;;;;5036847;28;20021;-70
2023/08/11 05:47:27;;;;;;;2.35;1.85;;;16.80;99.90;;;;;;5039674;28;20100;-69
2023/08/11 05:49:53;;;;;;;3.30;1.00;;;16.90;99.90;;;;;;5034177;28;20057;-68
2023/08/11 05:52:19;;;;;;;0.70;0.70;;;16.90;99.90;;;;;;5026022;28;20079;-68
2023/08/11 05:54:45;;;;;;;1.17;0.60;;;17.00;99.90;;;;;;5036177;28;20026;-69
2023/08/11 05:57:12;;;;;;;1.52;1.25;;;17.10;99.90;;;;;;5051533;28;20021;-68
2023/08/11 05:59:38;;;;;;;0.95;0.95;;;17.10;99.90;;;;;;5031857;28;20022;-80
2023/08/11 06:02:03;;;;;;;3.25;1.60;;;17.20;99.90;;;;;;5043576;28;20028;-68
2023/08/11 06:04:29;;;;;;;0.77;0.73;;;17.20;99.90;;;;;;5036004;28;20033;-68
2023/08/11 06:06:55;;;;;;;4.20;2.57;;;17.30;99.90;;;;;;5031974;28;20282;-68
2023/08/11 06:09:22;;;;;;;2.00;1.90;;;17.40;99.90;;;;;;5034708;28;20059;-68
2023/08/11 06:11:48;;;;;;;1.10;1.05;;;17.50;99.90;;;;;;5035705;28;20018;-68
2023/08/11 06:14:14;;;;;;;1.67;1.20;;;17.50;99.90;;;;;;5051859;28;20044;-68
2023/08/11 06:16:40;;;;;;;1.58;1.48;;;17.60;99.90;;;;;;5039243;28;20029;-68
2023/08/11 06:19:06;;;;;;;1.93;1.50;;;17.70;99.90;;;;;;5035448;28;20446;-68
2023/08/11 06:21:31;;;;;;;1.17;1.07;;;17.70;99.90;;;;;;5035242;28;20029;-69
2023/08/11 06:23:57;;;;;;;3.37;1.47;;;17.80;99.90;;;;;;5030932;28;20251;-68
2023/08/11 06:26:23;;;;;;;2.20;2.00;;;17.90;99.90;;;;;;5034142;28;20060;-80
2023/08/11 06:28:49;;;;;;;1.20;1.10;;;17.90;99.90;;;;;;5031416;28;20033;-82
2023/08/11 06:31:17;;;;;;;1.33;1.23;;;18.00;99.90;;;;;;5034226;28;20037;-69
2023/08/11 06:33:43;;;;;;;2.75;1.25;;;18.10;99.90;;;;;;5038596;28;20335;-68
2023/08/11 06:36:09;;;;;;;1.10;1.10;;;18.20;99.90;;;;;;5033632;28;20116;-68
2023/08/11 06:38:35;;;;;;;5.30;1.63;;;18.20;99.90;;;;;;5031583;28;20365;-68
2023/08/11 06:41:01;;;;;;;5.40;1.65;;;18.30;99.90;;;;;;5032781;28;20025;-68
2023/08/11 06:43:26;;;;;;;2.00;1.60;;;18.30;99.90;;;;;;5030082;28;20029;-68
2023/08/11 06:45:52;;;;;;;1.37;1.30;;;18.40;99.90;;;;;;5034915;28;20038;-69
2023/08/11 06:48:18;;;;;;;3.40;2.30;;;18.50;99.90;;;;;;5028929;28;20424;-68
2023/08/11 06:50:44;;;;;;;1.27;1.10;;;18.60;99.90;;;;;;5036128;28;20286;-69
2023/08/11 06:53:10;;;;;;;1.13;1.10;;;18.60;99.90;;;;;;5035993;28;20436;-68
2023/08/11 06:55:36;;;;;;;2.90;1.40;;;18.70;99.90;;;;;;5028968;28;20040;-68
2023/08/11 06:58:02;;;;;;;8.90;1.70;;;18.80;99.90;;;;;;5027273;28;20029;-69
2023/08/11 07:00:27;;;;;;;1.83;1.43;;;18.90;99.90;;;;;;5039946;28;20270;-69
2023/08/11 07:02:53;;;;;;;2.92;2.55;;;18.90;99.90;;;;;;5043608;28;20033;-71
2023/08/11 07:05:19;;;;;;;1.70;1.20;;;19.00;99.90;;;;;;5050327;28;20044;-69
2023/08/11 07:07:46;;;;;;;8.90;2.60;;;19.20;99.90;;;;;;5034091;28;20056;-68
2023/08/11 07:10:12;;;;;;;3.22;2.55;;;19.20;99.90;;;;;;5044213;28;20424;-68
2023/08/11 07:12:38;;;;;;;0.73;0.70;;;19.30;99.90;;;;;;5033223;28;20021;-78
2023/08/11 07:15:04;;;;;;;1.47;1.37;;;19.50;99.90;;;;;;5041751;28;20025;-68
2023/08/11 07:17:29;;;;;;;5.10;1.75;;;19.60;99.90;;;;;;5042739;28;20048;-68
2023/08/11 07:19:55;;;;;;;2.30;2.10;;;19.70;99.90;;;;;;5022772;28;20032;-68
2023/08/11 07:22:21;;;;;;;0.87;0.87;;;19.80;99.90;;;;;;5034516;28;20060;-68
2023/08/11 07:24:46;;;;;;;0.87;0.87;;;20.00;99.90;;;;;;5035008;28;20025;-68
2023/08/11 07:27:12;;;;;;;3.10;1.60;;;20.20;99.90;;;;;;5043604;28;20036;-68
2023/08/11 07:29:38;;;;;;;4.50;1.20;;;20.30;99.90;;;;;;5033497;28;20025;-68
2023/08/11 07:32:04;;;;;;;2.33;1.60;;;20.50;99.90;;;;;;5021127;28;20030;-69
2023/08/11 07:34:30;;;;;;;13.10;9.13;;;20.70;99.90;;;;;;5015388;28;20037;-68
2023/08/11 07:36:56;;;;;;;3.92;2.85;;;20.80;99.90;;;;;;5023078;28;20046;-68
2023/08/11 07:39:22;;;;;;;3.50;3.17;;;21.10;99.90;;;;;;5038705;28;20029;-75
2023/08/11 07:41:48;;;;;;;1.33;0.77;;;21.20;99.90;;;;;;5034529;28;20571;-68
2023/08/11 07:44:15;;;;;;;3.42;1.63;;;21.40;99.90;;;;;;5031053;28;20328;-68
2023/08/11 07:46:41;;;;;;;2.10;1.38;;;21.60;99.90;;;;;;5038434;28;20025;-69
2023/08/11 07:49:07;;;;;;;0.88;0.63;;;21.70;99.90;;;;;;5035354;28;20037;-69
2023/08/11 07:51:33;;;;;;;1.48;0.82;;;21.90;99.90;;;;;;5023662;28;20029;-81
2023/08/11 07:53:59;;;;;;;1.17;1.10;;;22.10;99.90;;;;;;5039658;28;20042;-73
2023/08/11 07:56:25;;;;;;;5.50;2.15;;;22.20;99.90;;;;;;5022656;28;20087;-79
2023/08/11 07:58:52;;;;;;;1.65;1.10;;;22.40;99.90;;;;;;5020259;28;20058;-79
2023/08/11 08:01:19;;;;;;;1.70;1.42;;;22.50;99.90;;;;;;5038025;28;20048;-80
2023/08/11 08:03:45;;;;;;;0.73;0.73;;;22.60;99.90;;;;;;5032174;28;20038;-78
2023/08/11 08:06:11;;;;;;;;;;;22.70;99.90;;;;;;5048496;28;20036;-68
2023/08/11 08:08:37;;;;;;;17.33;7.10;;;22.80;99.90;;;;;;5029192;28;19913;-68
2023/08/11 08:11:03;;;;;;;1.90;1.80;;;22.90;99.90;;;;;;5036012;28;20037;-69
2023/08/11 08:13:30;;;;;;;0.77;0.77;;;23.10;99.90;;;;;;5053033;28;20308;-78
2023/08/11 08:15:55;;;;;;;;;;;23.20;99.90;;;;;;5055919;28;20025;-69
2023/08/11 08:18:21;;;;;;;1.17;0.65;;;23.30;99.90;;;;;;5028314;28;19916;-69
2023/08/11 08:20:47;;;;;;;1.70;0.73;;;23.50;99.90;;;;;;5048897;28;20017;-69
2023/08/11 08:23:13;;;;;;;0.45;0.45;;;23.70;99.90;;;;;;5036928;28;20689;-69
2023/08/11 08:25:40;;;;;;;0.45;0.45;;;23.70;99.90;;;;;;5033582;28;20049;-69
2023/08/11 08:28:06;;;;;;;;;;;24.00;99.90;;;;;;5040803;28;20036;-69
2023/08/11 08:30:32;;;;;;;4.95;2.80;;;24.10;99.90;;;;;;5036602;28;19909;-68
2023/08/11 08:32:57;;;;;;;11.15;3.30;;;24.20;99.90;;;;;;5027713;28;20073;-69
2023/08/11 08:35:24;;;;;;;0.60;0.60;;;24.40;99.90;;;;;;5034473;28;20063;-69
2023/08/11 08:37:50;;;;;;;1.75;1.02;;;24.50;99.90;;;;;;5036697;28;20154;-69
2023/08/11 08:40:15;;;;;;;1.58;1.42;;;24.50;99.90;;;;;;5022934;28;20491;-69
2023/08/11 08:42:42;;;;;;;0.45;0.45;;;24.50;99.90;;;;;;5024094;28;20328;-69
2023/08/11 08:45:08;;;;;;;0.88;0.88;;;24.60;99.90;;;;;;5023829;28;20033;-69
2023/08/11 08:47:35;;;;;;;;;;;24.60;99.90;;;;;;5020508;28;20064;-69
2023/08/11 08:50:03;;;;;;;1.23;0.65;;;24.70;99.90;;;;;;5026032;28;20003;-70
2023/08/11 08:52:30;;;;;;;26.77;1.52;;;24.70;99.90;;;;;;5030610;28;20409;-69
2023/08/11 08:54:57;;;;;;;0.65;0.63;;;24.70;99.90;;;;;;5027165;28;20026;-69
2023/08/11 08:57:27;;;;;;;0.55;0.55;;;24.70;99.90;;;;;;5028301;28;20013;-70
2023/08/11 08:59:53;;;;;;;1.45;0.52;;;24.70;99.90;;;;;;5021267;28;20036;-69
2023/08/11 09:02:19;;;;;;;;;;;24.60;99.90;;;;;;5032082;28;20068;-69
2023/08/11 09:04:46;;;;;;;;;;;24.60;99.90;;;;;;5036370;28;19920;-80
2023/08/11 09:07:12;;;;;;;1.38;0.50;;;24.60;99.90;;;;;;5036831;28;20296;-76
2023/08/11 09:09:38;;;;;;;;;;;24.70;99.90;;;;;;5035222;28;20037;-81
2023/08/11 09:12:04;;;;;;;0.38;0.35;;;24.70;99.90;;;;;;5020862;28;19921;-69
2023/08/11 09:14:30;;;;;;;1.75;0.70;;;24.70;99.90;;;;;;5032997;28;20080;-80
2023/08/11 09:17:02;;;;;;;0.15;0.15;;;24.70;99.90;;;;;;5049612;28;20029;-69
2023/08/11 09:19:28;;;;;;;0.95;0.95;;;24.60;99.90;;;;;;5031722;28;20420;-69
2023/08/11 09:21:54;;;;;;;0.15;0.15;;;24.60;99.90;;;;;;5020994;28;20021;-69
2023/08/11 09:24:22;;;;;;;0.77;0.70;;;24.60;99.90;;;;;;5032068;28;20048;-75
2023/08/11 09:26:51;;;;;;;0.90;0.85;;;24.60;99.90;;;;;;5024080;28;20034;-69
2023/08/11 09:29:19;;;;;;;0.43;0.43;;;24.70;99.90;;;;;;5026871;28;20040;-78
2023/08/11 09:31:52;;;;;;;1.00;0.40;;;24.80;99.90;;;;;;5019921;28;20336;-77
2023/08/11 09:34:19;;;;;;;1.02;1.02;;;24.80;99.90;;;;;;5037459;28;20359;-69
2023/08/11 09:36:48;;;;;;;0.88;0.38;;;25.00;99.90;;;;;;5030917;28;20050;-69
2023/08/11 09:39:14;;;;;;;3.53;1.08;;;25.10;99.90;;;;;;5041369;28;20147;-68
2023/08/11 09:41:48;;;;;;;0.70;0.47;;;25.20;99.90;;;;;;5034760;28;20031;-68
2023/08/11 09:44:16;;;;;;;0.80;0.80;;;25.20;99.90;;;;;;5033260;28;20352;-69
2023/08/11 09:46:42;;;;;;;0.85;0.45;;;25.30;99.90;;;;;;5028899;28;20048;-69
2023/08/11 09:49:08;;;;;;;1.23;0.60;;;25.50;99.90;;;;;;5029855;28;20037;-69
2023/08/11 09:51:36;;;;;;;0.20;0.20;;;25.60;99.90;;;;;;5025744;28;20031;-69
2023/08/11 09:54:05;;;;;;;0.82;0.70;;;25.60;99.90;;;;;;5022894;28;20120;-69
2023/08/11 09:56:39;;;;;;;1.42;0.82;;;25.70;99.90;;;;;;5025296;28;20030;-69
2023/08/11 09:59:14;;;;;;;0.85;0.60;;;25.70;99.90;;;;;;5028911;28;20447;-69
2023/08/11 10:01:46;;;;;;;0.60;0.60;;;25.90;99.90;;;;;;5041113;28;20065;-83
2023/08/11 10:04:24;;;;;;;0.85;0.68;;;26.10;99.90;;;;;;5041746;28;20026;-70
2023/08/11 10:06:55;;;;;;;0.77;0.77;;;26.20;99.90;;;;;;5026832;28;20029;-78
2023/08/11 10:09:23;;;;;;;0.93;0.93;;;26.40;99.90;;;;;;5026071;28;20036;-69
2023/08/11 10:11:51;;;;;;;38.90;1.80;;;26.50;99.90;;;;;;5024758;28;20030;-68
2023/08/11 10:14:20;;;;;;;7.68;1.85;;;26.50;99.90;;;;;;5023709;28;20056;-70
2023/08/11 10:16:46;;;;;;;1.00;0.85;;;26.60;99.90;;;;;;5022321;28;20020;-69
2023/08/11 10:19:12;;;;;;;;;;;26.80;99.90;;;;;;5028657;28;20104;-69
2023/08/11 10:21:39;;;;;;;;;;;27.00;99.90;;;;;;5035137;28;20000;-74
2023/08/11 10:24:06;;;;;;;0.77;0.57;;;27.10;99.90;;;;;;5039637;28;19951;-83
2023/08/11 10:26:32;;;;;;;0.43;0.20;;;27.10;99.90;;;;;;5038350;28;20018;-70
2023/08/11 10:28:58;;;;;;;0.63;0.63;;;27.20;99.90;;;;;;5028022;28;20037;-84
2023/08/11 10:31:25;;;;;;;0.35;0.35;;;27.20;99.90;;;;;;5028628;28;20033;-84
2023/08/11 10:33:53;;;;;;;0.50;0.50;;;27.20;99.90;;;;;;5030614;28;20034;-70
2023/08/11 10:36:23;;;;;;;0.63;0.63;;;27.40;99.90;;;;;;5034212;28;20092;-69
2023/08/11 10:39:06;;;;;;;4.43;3.35;;;27.50;99.90;;;;;;5037912;28;20471;-81
2023/08/11 10:41:33;;;;;;;2.08;1.02;;;27.70;99.90;;;;;;5022683;28;20088;-69
2023/08/11 10:43:59;;;;;;;6.20;0.80;;;27.70;99.90;;;;;;5035366;28;20025;-69
2023/08/11 10:46:32;;;;;;;1.13;1.02;;;27.90;99.90;;;;;;5030293;28;20368;-70
2023/08/11 10:48:59;;;;;;;1.83;1.05;;;28.00;99.90;;;;;;5037853;28;20065;-70
2023/08/11 10:51:27;;;;;;;0.60;0.60;;;28.10;99.90;;;;;;5034640;28;20082;-69
2023/08/11 10:53:59;;;;;;;3.03;1.17;;;28.30;99.90;;;;;;5039606;28;20477;-69
2023/08/11 10:56:31;;;;;;;9.75;0.45;;;28.50;99.90;;;;;;5034038;28;20032;-70
2023/08/11 10:59:26;;;;;;;0.28;0.28;;;28.50;99.90;;;;;;5034887;28;20022;-87
2023/08/11 11:01:54;;;;;;;6.65;0.75;;;28.60;99.90;;;;;;5037375;28;20018;-70
2023/08/11 11:04:26;;;;;;;0.80;0.70;;;28.60;99.90;;;;;;5034824;28;20470;-85
2023/08/11 11:06:52;;;;;;;0.22;0.22;;;28.70;99.90;;;;;;5020797;28;20112;-70
2023/08/11 11:09:19;;;;;;;0.35;0.35;;;28.80;99.90;;;;;;5034493;28;20124;-69
2023/08/11 11:11:46;;;;;;;0.57;0.57;;;28.90;99.90;;;;;;5032432;28;20037;-81
2023/08/11 11:14:13;;;;;;;0.10;0.10;;;28.80;99.90;;;;;;5034485;28;20083;-70
2023/08/11 11:16:40;;;;;;;1.02;0.32;;;28.90;99.90;;;;;;5033703;28;20029;-70
2023/08/11 11:19:07;;;;;;;0.52;0.52;;;29.00;99.90;;;;;;5034574;28;20116;-69
2023/08/11 11:21:34;;;;;;;0.20;0.20;;;29.10;99.90;;;;;;5032685;28;20101;-83
2023/08/11 11:24:01;;;;;;;0.63;0.63;;;29.10;99.90;;;;;;5022409;28;20046;-69
2023/08/11 11:26:29;;;;;;;1.75;0.52;;;29.20;99.90;;;;;;5028496;28;20022;-69
2023/08/11 11:28:57;;;;;;;0.43;0.35;;;29.10;99.90;;;;;;5030073;28;20056;-69
2023/08/11 11:31:25;;;;;;;0.90;0.80;;;28.90;99.90;;;;;;5033851;28;20029;-69
2023/08/11 11:33:51;;;;;;;0.35;0.35;;;28.90;99.90;;;;;;5033682;28;20029;-70
2023/08/11 11:36:21;;;;;;;0.20;0.20;;;28.90;99.90;;;;;;5023671;28;20104;-70
2023/08/11 11:38:47;;;;;;;0.55;0.55;;;28.80;99.90;;;;;;5021268;28;20026;-79
2023/08/11 11:41:17;;;;;;;0.73;0.73;;;28.80;99.90;;;;;;5031235;28;20018;-69
2023/08/11 11:43:46;;;;;;;0.50;0.45;;;28.60;99.90;;;;;;5017137;28;20325;-69
2023/08/11 11:46:16;;;;;;;0.20;0.20;;;28.40;99.90;;;;;;5036592;28;20029;-70
2023/08/11 11:48:46;;;;;;;0.25;0.25;;;28.30;99.90;;;;;;5015491;28;20022;-70
2023/08/11 11:51:14;;;;;;;0.43;0.43;;;28.40;99.90;;;;;;5026914;28;20025;-69
2023/08/11 11:53:40;;;;;;;0.15;0.15;;;28.50;99.90;;;;;;5023869;28;20033;-84
2023/08/11 11:56:07;;;;;;;;;;;28.60;99.90;;;;;;5033560;28;20026;-70
2023/08/11 11:58:33;;;;;;;0.13;0.13;;;28.60;99.90;;;;;;5017765;28;20000;-70
2023/08/11 12:01:31;;;;;;;0.10;0.10;;;28.50;99.90;;;;;;5024764;28;20051;-70
2023/08/11 12:04:00;;;;;;;0.28;0.28;;;28.40;99.90;;;;;;5000990;28;20120;-70
2023/08/11 12:06:30;;;;;;;1.67;0.85;;;28.40;99.90;;;;;;5004837;28;20125;-70
2023/08/11 12:09:04;;;;;;;1.05;1.00;;;28.30;99.90;;;;;;5003692;28;20112;-70
2023/08/11 12:11:30;;;;;;;0.80;0.80;;;28.20;99.90;;;;;;5000219;28;20038;-70
2023/08/11 12:13:59;;;;;;;0.68;0.47;;;27.90;99.90;;;;;;5006662;28;20130;-80
2023/08/11 12:16:26;;;;;;;0.10;0.10;;;27.60;99.90;;;;;;5004430;28;20429;-70
2023/08/11 12:18:52;;;;;;;0.50;0.50;;;27.50;99.90;;;;;;5005919;28;20033;-69
2023/08/11 12:21:19;;;;;;;0.35;0.22;;;27.60;99.90;;;;;;4993929;28;20043;-69
2023/08/11 12:23:44;;;;;;;;;;;27.60;99.90;;;;;;5002185;28;20265;-69
2023/08/11 12:26:10;;;;;;;0.00;0.00;;;27.80;99.90;;;;;;5005422;28;20337;-69
2023/08/11 12:28:36;;;;;;;0.30;0.30;;;27.90;99.90;;;;;;5016785;28;20387;-69
2023/08/11 12:31:05;;;;;;;0.52;0.52;;;27.90;99.90;;;;;;5006860;28;20440;-78
2023/08/11 12:33:32;;;;;;;0.38;0.38;;;27.80;99.90;;;;;;5019274;28;20076;-70
2023/08/11 12:35:58;;;;;;;1.25;0.28;;;27.80;99.90;;;;;;5017069;28;20029;-83
2023/08/11 12:38:24;;;;;;;0.60;0.32;;;28.00;99.90;;;;;;5007878;28;20026;-69
2023/08/11 12:40:50;;;;;;;;;;;28.00;99.90;;;;;;5039141;28;20119;-70
2023/08/11 12:43:16;;;;;;;0.10;0.10;;;28.10;99.90;;;;;;5048781;28;19952;-85
2023/08/11 12:45:46;;;;;;;0.20;0.20;;;28.30;99.90;;;;;;5036912;28;20056;-80
2023/08/11 12:48:13;;;;;;;0.65;0.65;;;28.20;99.90;;;;;;5035310;28;20439;-79
2023/08/11 12:50:40;;;;;;;0.50;0.50;;;28.30;99.90;;;;;;5030119;28;20096;-80